Terminal Aerodrome Forecast
Issued by NWS Omaha/Valley, NE

Home | Current Version | Previous Version | Text Only | Print | Product List | Glossary Off
Versions: 1 2 3 4 5 6 7 8 9 10 11 12 13 14 15 16 17 18 19 20 21 22 23 24 25 26 27 28 29 30 31 32 33 34 35 36 37 38 39 40

000
FTUS43 KOAX 190810 AAA
TAFOFK
TAF AMD
KOFK 190810Z 1908/2006 32008KT P6SM OVC070
      TEMPO 1908/1910 VRB10G20KT 2SM -SHRA BR OVC050
     FM191000 35012KT P6SM VCSH OVC025
      TEMPO 1912/1915 4SM -TSRA BR OVC012CB
     FM191800 01015KT P6SM -SHRA OVC012
      TEMPO 1922/2001 4SM -TSRA OVC010CB
     FM200200 01010KT P6SM OVC008=

USA.gov is the U.S. government's official web portal to all federal, state and local government web resources and services.